createdAt,value
2023-05-25T00:03:05.014Z,7.92
2023-05-25T00:08:09.054Z,7.85
2023-05-25T00:13:12.809Z,7.77
2023-05-25T00:18:16.523Z,7.69
2023-05-25T00:23:21.763Z,7.65
2023-05-25T00:28:25.616Z,7.62
2023-05-25T00:33:29.655Z,7.69
2023-05-25T00:38:33.389Z,7.71
2023-05-25T00:43:37.240Z,7.72
2023-05-25T00:48:41.224Z,7.65
2023-05-25T00:53:44.988Z,7.57
2023-05-25T00:58:51.194Z,7.50
2023-05-25T01:03:56.846Z,7.45
2023-05-25T01:09:04.696Z,7.35
2023-05-25T01:14:09.595Z,7.25
2023-05-25T01:19:13.638Z,7.17
2023-05-25T01:24:32.781Z,7.18
2023-05-25T01:29:38.002Z,7.15
2023-05-25T01:34:44.264Z,7.11
2023-05-25T01:39:48.073Z,7.05
2023-05-25T01:44:51.930Z,7.03
2023-05-25T01:50:14.458Z,6.95
2023-05-25T01:55:19.851Z,6.91
2023-05-25T02:00:25.372Z,6.86
2023-05-25T02:05:29.358Z,6.83
2023-05-25T02:10:33.609Z,6.90
2023-05-25T02:15:38.095Z,7.07
2023-05-25T02:20:41.967Z,7.17
2023-05-25T02:25:46.851Z,7.23
2023-05-25T02:30:50.796Z,7.31
2023-05-25T02:35:55.766Z,7.38
2023-05-25T02:40:59.656Z,7.48
2023-05-25T02:46:03.612Z,7.56
2023-05-25T02:51:07.717Z,7.61
2023-05-25T02:56:11.835Z,7.65
2023-05-25T03:01:19.416Z,7.69
2023-05-25T03:06:29.004Z,7.71
2023-05-25T03:11:35.247Z,7.72
2023-05-25T03:16:40.450Z,7.78
2023-05-25T03:21:44.409Z,7.85
2023-05-25T03:26:51.703Z,7.91
2023-05-25T03:31:55.638Z,7.97
2023-05-25T03:37:04.078Z,8.05
2023-05-25T03:42:08.576Z,8.15
2023-05-25T03:47:13.898Z,8.23
2023-05-25T03:52:17.695Z,8.27
2023-05-25T03:57:21.711Z,8.33
2023-05-25T04:02:25.565Z,8.43
2023-05-25T04:07:31.463Z,8.52
2023-05-25T04:12:36.676Z,8.60
2023-05-25T04:17:41.520Z,8.68
2023-05-25T04:22:45.415Z,8.79
2023-05-25T04:27:49.612Z,8.87
2023-05-25T04:33:04.372Z,8.97
2023-05-25T04:38:27.454Z,9.09
2023-05-25T04:43:31.439Z,9.19
2023-05-25T04:48:39.516Z,9.28
2023-05-25T04:53:43.544Z,9.41
2023-05-25T04:58:47.501Z,9.51
2023-05-25T05:03:51.888Z,9.57
2023-05-25T05:08:58.099Z,9.65
2023-05-25T05:14:01.986Z,9.76
2023-05-25T05:19:06.564Z,9.76
2023-05-25T05:24:11.252Z,9.69
2023-05-25T05:29:15.047Z,9.70
2023-05-25T05:34:21.716Z,9.80
2023-05-25T05:39:25.661Z,9.86
2023-05-25T05:44:32.382Z,9.94
2023-05-25T05:49:39.646Z,10.03
2023-05-25T05:54:43.737Z,10.16
2023-05-25T05:59:51.003Z,10.32
2023-05-25T06:04:55.376Z,10.42
2023-05-25T06:10:03.932Z,10.53
2023-05-25T06:15:16.336Z,10.62
2023-05-25T06:20:22.777Z,10.71
2023-05-25T06:25:27.155Z,10.84
2023-05-25T06:30:32.145Z,11.01
2023-05-25T06:35:36.065Z,11.20
2023-05-25T06:40:40.078Z,11.35
2023-05-25T06:45:44.351Z,11.54
2023-05-25T06:50:49.141Z,11.73
2023-05-25T06:55:53.223Z,11.90
2023-05-25T07:00:57.085Z,12.12
2023-05-25T07:06:00.926Z,12.25
2023-05-25T07:11:05.150Z,12.41
2023-05-25T07:16:08.973Z,12.65
2023-05-25T07:21:12.735Z,12.85
2023-05-25T07:26:17.034Z,12.93
2023-05-25T07:31:20.913Z,13.17
2023-05-25T07:36:25.259Z,13.44
2023-05-25T07:41:28.926Z,13.60
2023-05-25T07:46:32.747Z,13.76
2023-05-25T07:51:37.036Z,13.93
2023-05-25T07:56:40.908Z,14.19
2023-05-25T08:01:44.704Z,14.17
2023-05-25T08:06:48.514Z,14.23
2023-05-25T08:11:52.382Z,14.28
2023-05-25T08:16:59.833Z,14.23
2023-05-25T08:22:03.798Z,14.33
2023-05-25T08:27:07.479Z,14.50
2023-05-25T08:32:11.454Z,14.45
2023-05-25T08:37:15.259Z,14.46
2023-05-25T08:42:19.129Z,14.50
2023-05-25T08:47:23.848Z,14.58
2023-05-25T08:52:30.050Z,14.69
2023-05-25T08:57:42.695Z,14.97
2023-05-25T09:03:07.584Z,15.01
2023-05-25T09:08:11.882Z,15.17
2023-05-25T09:18:22.990Z,15.57
2023-05-25T09:23:26.968Z,15.79
2023-05-25T09:28:30.705Z,16.21
2023-05-25T09:33:36.879Z,16.64
2023-05-25T09:38:41.706Z,17.06
2023-05-25T09:44:02.196Z,17.09
2023-05-25T09:49:12.590Z,17.18
2023-05-25T09:54:16.898Z,17.51
2023-05-25T09:59:22.573Z,17.59
2023-05-25T10:04:26.557Z,17.55
2023-05-25T10:09:31.009Z,17.62
2023-05-25T10:14:37.449Z,17.36
2023-05-25T10:19:49.616Z,17.66
2023-05-25T10:25:12.087Z,17.74
2023-05-25T10:30:16.812Z,17.79
2023-05-25T10:35:21.889Z,17.93
2023-05-25T10:40:25.710Z,17.74
2023-05-25T10:45:31.122Z,17.95
2023-05-25T10:50:38.051Z,17.99
2023-05-25T10:55:49.702Z,18.38
2023-05-25T11:01:08.683Z,18.74
2023-05-25T11:06:17.162Z,18.40
2023-05-25T11:11:21.388Z,18.40
2023-05-25T11:16:29.813Z,18.18
2023-05-25T11:21:37.130Z,18.48
2023-05-25T11:26:56.960Z,18.74
2023-05-25T11:32:01.538Z,18.59
2023-05-25T11:37:05.479Z,18.61
2023-05-25T11:42:11.764Z,18.70
2023-05-25T11:47:19.303Z,18.64
2023-05-25T11:52:25.412Z,18.51
2023-05-25T11:57:29.378Z,18.41
2023-05-25T12:02:44.002Z,18.25
2023-05-25T12:07:48.154Z,18.31
2023-05-25T12:12:52.588Z,18.50
2023-05-25T12:17:57.453Z,18.61
2023-05-25T12:23:02.183Z,18.79
2023-05-25T12:28:12.715Z,18.96
2023-05-25T12:33:16.668Z,18.72
2023-05-25T12:38:24.328Z,18.68
2023-05-25T12:43:45.787Z,18.82
2023-05-25T12:48:49.587Z,19.09
2023-05-25T12:53:54.647Z,19.08
2023-05-25T12:59:16.882Z,18.99
2023-05-25T13:04:20.776Z,19.40
2023-05-25T13:09:29.123Z,19.97
2023-05-25T13:14:32.969Z,20.19
2023-05-25T13:19:37.302Z,20.01
2023-05-25T13:24:41.440Z,19.67
2023-05-25T13:29:45.145Z,19.53
2023-05-25T13:34:54.413Z,19.34
2023-05-25T13:40:01.151Z,19.26
2023-05-25T13:45:08.710Z,19.56
2023-05-25T13:50:12.626Z,19.32
2023-05-25T13:55:16.574Z,19.23
2023-05-25T14:00:20.631Z,19.23
2023-05-25T14:05:24.793Z,19.73
2023-05-25T14:10:28.917Z,20.18
2023-05-25T14:15:33.080Z,20.84
2023-05-25T14:20:38.421Z,21.13
2023-05-25T14:25:45.577Z,21.03
2023-05-25T14:30:50.059Z,21.11
2023-05-25T14:35:53.837Z,20.82
2023-05-25T14:40:57.637Z,20.92
2023-05-25T14:46:01.510Z,21.18
2023-05-25T14:51:06.216Z,21.11
2023-05-25T14:56:11.291Z,21.10
2023-05-25T15:01:15.281Z,21.03
2023-05-25T15:06:19.024Z,20.56
2023-05-25T15:11:22.814Z,20.32
2023-05-25T15:16:26.653Z,20.39
2023-05-25T15:21:30.860Z,20.32
2023-05-25T15:26:34.914Z,20.30
2023-05-25T15:31:38.781Z,20.56
2023-05-25T15:36:45.630Z,20.54
2023-05-25T15:41:56.933Z,20.37
2023-05-25T15:47:03.943Z,20.28
2023-05-25T15:52:08.092Z,20.31
2023-05-25T15:57:15.448Z,20.58
2023-05-25T16:02:20.125Z,20.57
2023-05-25T16:07:24.064Z,20.90
2023-05-25T16:12:28.613Z,20.76
2023-05-25T16:17:32.569Z,20.72
2023-05-25T16:22:36.342Z,20.66
2023-05-25T16:27:40.214Z,20.71
2023-05-25T16:32:43.999Z,20.74
2023-05-25T16:37:47.789Z,20.22
2023-05-25T16:42:51.727Z,19.81
2023-05-25T16:47:55.462Z,19.49
2023-05-25T16:52:59.361Z,20.43
2023-05-25T16:58:03.433Z,21.96
2023-05-25T17:03:07.498Z,23.02
2023-05-25T17:08:12.577Z,23.75
2023-05-25T17:13:18.882Z,24.50
2023-05-25T17:18:22.774Z,24.74
2023-05-25T17:23:27.384Z,24.43
2023-05-25T17:28:33.221Z,24.10
2023-05-25T17:33:36.948Z,23.18
2023-05-25T17:38:41.653Z,22.31
2023-05-25T17:43:46.728Z,21.76
2023-05-25T17:48:50.806Z,21.09
2023-05-25T17:53:54.621Z,20.48
2023-05-25T17:58:58.392Z,20.00
2023-05-25T18:04:02.592Z,19.60
2023-05-25T18:09:06.413Z,19.33
2023-05-25T18:14:10.706Z,19.08
2023-05-25T18:19:21.552Z,18.80
2023-05-25T18:24:28.950Z,18.38
2023-05-25T18:29:33.075Z,18.03
2023-05-25T18:34:37.224Z,17.69
2023-05-25T18:39:42.505Z,17.29
2023-05-25T18:44:46.802Z,16.93
2023-05-25T18:49:51.977Z,16.61
2023-05-25T18:54:56.445Z,16.31
2023-05-25T19:00:07.882Z,15.98
2023-05-25T19:05:11.991Z,15.67
2023-05-25T19:10:16.288Z,15.37
2023-05-25T19:15:20.659Z,15.10
2023-05-25T19:20:28.638Z,14.87
2023-05-25T19:25:32.747Z,14.65
2023-05-25T19:30:36.940Z,14.44
2023-05-25T19:35:42.059Z,14.26
2023-05-25T19:40:46.548Z,14.08
2023-05-25T19:45:50.915Z,13.91
2023-05-25T19:50:54.938Z,13.74
2023-05-25T19:56:00.181Z,13.56
2023-05-25T20:01:04.316Z,13.40
2023-05-25T20:06:08.782Z,13.27
2023-05-25T20:11:13.481Z,13.16
2023-05-25T20:16:17.523Z,13.07
2023-05-25T20:21:22.466Z,12.99
2023-05-25T20:26:26.310Z,12.89
2023-05-25T20:31:30.139Z,12.80
2023-05-25T20:36:33.930Z,12.70
2023-05-25T20:41:38.343Z,12.55
2023-05-25T20:46:42.568Z,12.39
2023-05-25T20:51:50.558Z,12.19
2023-05-25T20:56:55.403Z,12.00
2023-05-25T21:01:59.612Z,11.78
2023-05-25T21:07:03.891Z,11.59
2023-05-25T21:12:07.955Z,11.45
2023-05-25T21:17:12.030Z,11.38
2023-05-25T21:22:16.604Z,11.30
2023-05-25T21:27:20.381Z,11.20
2023-05-25T21:32:24.371Z,11.15
2023-05-25T21:37:28.639Z,11.08
2023-05-25T21:42:32.461Z,11.04
2023-05-25T21:47:36.215Z,11.00
2023-05-25T21:52:40.384Z,10.98
2023-05-25T21:57:44.347Z,10.94
2023-05-25T22:02:49.280Z,10.94
2023-05-25T22:07:54.994Z,10.89
2023-05-25T22:12:59.412Z,10.94
2023-05-25T22:18:03.131Z,10.89
2023-05-25T22:23:07.628Z,10.83
2023-05-25T22:28:11.512Z,10.81
2023-05-25T22:33:15.242Z,10.80
2023-05-25T22:38:18.921Z,10.83
2023-05-25T22:43:22.434Z,10.79
2023-05-25T22:48:26.584Z,10.70
2023-05-25T22:53:30.271Z,10.59
2023-05-25T22:58:33.936Z,10.52
2023-05-25T23:03:37.590Z,10.47
2023-05-25T23:08:41.282Z,10.39
2023-05-25T23:13:45.562Z,10.29
2023-05-25T23:18:49.080Z,10.22
2023-05-25T23:23:52.556Z,10.22
2023-05-25T23:28:56.253Z,10.23
2023-05-25T23:34:00.592Z,10.16
2023-05-25T23:45:58.984Z,9.95
2023-05-25T23:51:02.823Z,9.96
2023-05-25T23:56:06.768Z,9.96
